Time;durP1;ratioP1;P1;durP2;ratioP2;P2;SDS_P1;SDS_P2;PMS_P1;PMS_P2;Temp;Humidity;BMP_temperature;BMP_pressure;BME280_temperature;BME280_humidity;BME280_pressure;Samples;Min_cycle;Max_cycle;Signal;HPM_P1;HPM_P2
2021/12/12 00:00:49;;;;;;;6.85;2.25;;;10.90;99.90;;;;;;5051871;28;20099;-76
2021/12/12 00:03:31;;;;;;;6.25;1.98;;;10.80;99.90;;;;;;5051693;28;20029;-77
2021/12/12 00:06:03;;;;;;;4.22;2.05;;;10.80;99.90;;;;;;5051322;28;20175;-75
2021/12/12 00:08:29;;;;;;;5.80;2.10;;;10.80;99.90;;;;;;5052488;28;20040;-77
2021/12/12 00:11:01;;;;;;;5.88;2.13;;;10.80;99.90;;;;;;5051107;28;20419;-76
2021/12/12 00:13:38;;;;;;;6.70;2.08;;;10.80;99.90;;;;;;5067325;28;20021;-76
2021/12/12 00:16:05;;;;;;;12.88;2.63;;;10.80;99.90;;;;;;5051081;28;20025;-76
2021/12/12 00:18:30;;;;;;;9.60;2.63;;;10.80;99.90;;;;;;5051795;28;20087;-76
2021/12/12 00:20:56;;;;;;;10.75;1.92;;;10.80;99.90;;;;;;5051250;28;20472;-76
2021/12/12 00:23:23;;;;;;;7.10;1.83;;;10.80;99.90;;;;;;5052232;28;20492;-76
2021/12/12 00:25:53;;;;;;;4.95;1.98;;;10.80;99.90;;;;;;5051471;28;20031;-76
2021/12/12 00:28:21;;;;;;;9.38;2.00;;;10.70;99.90;;;;;;5051891;28;20020;-76
2021/12/12 00:30:53;;;;;;;6.35;1.58;;;10.70;99.90;;;;;;5051067;28;20033;-76
2021/12/12 00:33:20;;;;;;;6.47;1.90;;;10.70;99.90;;;;;;5051470;28;20383;-76
2021/12/12 00:35:49;;;;;;;6.30;1.80;;;10.70;99.90;;;;;;5050938;28;20040;-76
2021/12/12 00:38:26;;;;;;;5.57;1.83;;;10.80;99.90;;;;;;5051630;28;20059;-75
2021/12/12 00:40:56;;;;;;;10.43;2.13;;;10.80;99.90;;;;;;5051236;28;20060;-76
2021/12/12 00:43:26;;;;;;;7.32;1.92;;;10.80;99.90;;;;;;5051632;28;20460;-75
2021/12/12 00:45:55;;;;;;;5.40;1.75;;;10.80;99.90;;;;;;5050715;28;20025;-76
2021/12/12 00:48:23;;;;;;;8.43;2.13;;;10.70;99.90;;;;;;5051616;28;20036;-75
2021/12/12 00:50:50;;;;;;;4.38;1.90;;;10.70;99.90;;;;;;5051182;28;20033;-76
2021/12/12 00:53:16;;;;;;;7.88;2.58;;;10.80;99.90;;;;;;5051869;28;20100;-76
2021/12/12 00:55:44;;;;;;;11.05;2.58;;;10.80;99.90;;;;;;5051544;28;20356;-76
2021/12/12 00:58:13;;;;;;;11.77;2.47;;;10.70;99.90;;;;;;5051831;28;20022;-75
2021/12/12 01:00:49;;;;;;;8.43;1.95;;;10.70;99.90;;;;;;5050463;28;20033;-76
2021/12/12 01:03:17;;;;;;;3.75;1.75;;;10.70;99.90;;;;;;5052106;28;20039;-76
2021/12/12 01:05:46;;;;;;;5.78;1.90;;;10.70;99.90;;;;;;5051527;28;20129;-76
2021/12/12 01:08:14;;;;;;;8.25;2.20;;;10.70;99.90;;;;;;5051739;28;20029;-76
2021/12/12 01:11:05;;;;;;;7.28;1.92;;;10.70;99.90;;;;;;5051677;28;20664;-76
2021/12/12 01:13:35;;;;;;;10.60;2.42;;;10.70;99.90;;;;;;5051608;28;20025;-77
2021/12/12 01:16:13;;;;;;;6.30;2.10;;;10.70;99.90;;;;;;5053879;28;20039;-76
2021/12/12 01:18:45;;;;;;;4.65;1.90;;;10.70;99.90;;;;;;5055502;28;20017;-76
2021/12/12 01:21:23;;;;;;;5.47;2.17;;;10.70;99.90;;;;;;5054989;28;20032;-75
2021/12/12 01:24:08;;;;;;;11.95;2.03;;;10.80;99.90;;;;;;5053672;28;20025;-76
2021/12/12 01:26:35;;;;;;;5.95;2.22;;;10.70;99.90;;;;;;5055545;28;20128;-75
2021/12/12 01:29:03;;;;;;;7.20;1.92;;;10.70;99.90;;;;;;5054752;28;20025;-76
2021/12/12 01:31:33;;;;;;;7.97;2.28;;;10.70;99.90;;;;;;5070657;28;20071;-76
2021/12/12 01:34:10;;;;;;;9.75;2.72;;;10.70;99.90;;;;;;5054658;28;20116;-77
2021/12/12 01:37:06;;;;;;;8.05;2.42;;;10.70;99.90;;;;;;5054953;28;20397;-76
2021/12/12 01:39:44;;;;;;;8.38;1.70;;;10.70;99.90;;;;;;5055198;28;20033;-76
2021/12/12 01:42:18;;;;;;;8.35;1.70;;;10.70;99.90;;;;;;5055102;28;20036;-76
2021/12/12 01:45:06;;;;;;;6.97;1.92;;;10.70;99.90;;;;;;5056532;28;20033;-76
2021/12/12 01:47:37;;;;;;;7.75;1.85;;;10.70;99.90;;;;;;5055066;28;20064;-76
2021/12/12 01:50:13;;;;;;;6.65;2.13;;;10.70;99.90;;;;;;5054516;28;20108;-76
2021/12/12 01:52:41;;;;;;;9.52;1.90;;;10.70;99.90;;;;;;5054950;28;20025;-76
2021/12/12 01:55:25;;;;;;;6.28;1.90;;;10.70;99.90;;;;;;5053869;28;20024;-76
2021/12/12 01:57:54;;;;;;;10.30;1.92;;;10.80;99.90;;;;;;5054044;28;20029;-76
2021/12/12 02:00:40;;;;;;;8.35;1.90;;;10.80;99.90;;;;;;5054658;28;20037;-76
2021/12/12 02:03:09;;;;;;;6.85;1.92;;;10.80;99.90;;;;;;5052912;28;20032;-75
2021/12/12 02:05:37;;;;;;;6.07;1.83;;;10.70;99.90;;;;;;5053950;28;20060;-76
2021/12/12 02:08:08;;;;;;;9.13;2.50;;;10.80;99.90;;;;;;5053932;28;20487;-76
2021/12/12 02:10:40;;;;;;;6.45;1.90;;;10.80;99.90;;;;;;5054269;28;20033;-76
2021/12/12 02:13:10;;;;;;;10.20;2.17;;;10.80;99.90;;;;;;5054227;28;20056;-77
2021/12/12 02:15:37;;;;;;;6.32;1.77;;;10.80;99.90;;;;;;5054387;28;20060;-76
2021/12/12 02:18:08;;;;;;;4.75;1.52;;;10.80;99.90;;;;;;5053479;28;20048;-76
2021/12/12 02:20:42;;;;;;;8.02;1.58;;;10.80;99.90;;;;;;5054426;28;20029;-76
2021/12/12 02:23:19;;;;;;;7.35;2.10;;;10.70;99.90;;;;;;5053746;28;20021;-76
2021/12/12 02:36:53;;;;;;;7.65;2.20;;;10.70;99.90;;;;;;5053499;28;20114;-77
2021/12/12 02:39:18;;;;;;;7.32;1.90;;;10.70;99.90;;;;;;5054041;28;20037;-76
2021/12/12 02:41:51;;;;;;;7.57;2.33;;;10.70;99.90;;;;;;5053814;28;20032;-76
2021/12/12 02:44:21;;;;;;;7.20;1.85;;;10.70;99.90;;;;;;5053669;28;20021;-75
2021/12/12 02:46:48;;;;;;;7.35;2.03;;;10.70;99.90;;;;;;5053964;28;20468;-75
2021/12/12 02:52:00;;;;;;;8.45;1.90;;;10.60;99.90;;;;;;5053253;28;20040;-77
2021/12/12 02:54:26;;;;;;;6.40;2.17;;;10.60;99.90;;;;;;5053601;28;20025;-75
2021/12/12 02:56:51;;;;;;;8.32;2.33;;;10.60;99.90;;;;;;5053197;28;20390;-76
2021/12/12 02:59:22;;;;;;;9.30;1.75;;;10.60;99.90;;;;;;5053227;28;20111;-75
2021/12/12 03:01:54;;;;;;;9.88;2.10;;;10.60;99.90;;;;;;5053480;28;20025;-75
2021/12/12 03:04:20;;;;;;;8.68;2.15;;;10.60;99.90;;;;;;5053544;28;20103;-75
2021/12/12 03:06:46;;;;;;;5.93;2.03;;;10.60;99.90;;;;;;5053009;28;20029;-76
2021/12/12 03:09:22;;;;;;;5.30;2.35;;;10.60;99.90;;;;;;5052727;28;20083;-76
2021/12/12 03:11:52;;;;;;;5.63;1.92;;;10.50;99.90;;;;;;5053543;28;20025;-76
2021/12/12 03:14:18;;;;;;;8.90;2.50;;;10.50;99.90;;;;;;5052921;28;20025;-77
2021/12/12 03:16:45;;;;;;;4.20;2.17;;;10.50;99.90;;;;;;5053305;28;20460;-77
2021/12/12 03:19:11;;;;;;;9.18;2.28;;;10.50;99.90;;;;;;5052436;28;20025;-77
2021/12/12 03:21:42;;;;;;;13.52;2.90;;;10.50;99.90;;;;;;5053088;28;20086;-76
2021/12/12 03:24:21;;;;;;;8.60;2.60;;;10.50;99.90;;;;;;5051289;28;20110;-76
2021/12/12 03:26:50;;;;;;;9.20;3.22;;;10.40;99.90;;;;;;5053158;28;20028;-76
2021/12/12 03:29:16;;;;;;;11.57;2.38;;;10.40;99.90;;;;;;5052405;28;20040;-76
2021/12/12 03:31:50;;;;;;;6.82;2.13;;;10.40;99.90;;;;;;5053079;28;20036;-76
2021/12/12 03:34:21;;;;;;;8.65;2.67;;;10.40;99.90;;;;;;5052308;28;20032;-76
2021/12/12 03:36:48;;;;;;;9.02;2.30;;;10.40;99.90;;;;;;5052759;28;20036;-77
2021/12/12 03:39:20;;;;;;;13.15;2.85;;;10.40;99.90;;;;;;5051776;28;20032;-77
2021/12/12 03:41:47;;;;;;;10.45;2.45;;;10.40;99.90;;;;;;5052808;28;20025;-77
2021/12/12 03:44:16;;;;;;;13.57;2.60;;;10.30;99.90;;;;;;5052208;28;20029;-76
2021/12/12 03:46:44;;;;;;;13.15;2.97;;;10.30;99.90;;;;;;5052543;28;20021;-76
2021/12/12 03:49:10;;;;;;;13.15;2.58;;;10.30;99.90;;;;;;5051967;28;20028;-77
2021/12/12 03:51:39;;;;;;;7.70;2.80;;;10.30;99.90;;;;;;5052763;28;20052;-76
2021/12/12 03:54:06;;;;;;;9.40;3.00;;;10.30;99.90;;;;;;5052096;28;20104;-76
2021/12/12 03:56:32;;;;;;;12.82;2.95;;;10.30;99.90;;;;;;5052621;28;20021;-76
2021/12/12 03:58:59;;;;;;;9.98;2.83;;;10.30;99.90;;;;;;5051747;28;20115;-76
2021/12/12 04:01:35;;;;;;;12.25;3.40;;;10.20;99.90;;;;;;5068029;28;20044;-76
2021/12/12 04:04:16;;;;;;;6.18;1.92;;;10.20;99.90;;;;;;5051792;28;20029;-76
2021/12/12 04:06:42;;;;;;;10.45;2.60;;;10.20;99.90;;;;;;5052521;28;20115;-75
2021/12/12 04:09:10;;;;;;;7.57;1.95;;;10.20;99.90;;;;;;5051938;28;20494;-76
2021/12/12 04:11:43;;;;;;;10.20;2.63;;;10.20;99.90;;;;;;5052441;28;20036;-76
2021/12/12 04:14:09;;;;;;;10.13;2.20;;;10.20;99.90;;;;;;5051822;28;20025;-76
2021/12/12 04:16:38;;;;;;;10.10;2.35;;;10.10;99.90;;;;;;5052315;28;20132;-76
2021/12/12 04:19:05;;;;;;;7.00;2.08;;;10.10;99.90;;;;;;5051615;28;20025;-76
2021/12/12 04:21:31;;;;;;;10.75;2.70;;;10.10;99.90;;;;;;5052212;28;20114;-75
2021/12/12 04:23:59;;;;;;;10.10;2.22;;;10.10;99.90;;;;;;5051947;28;20025;-76
2021/12/12 04:26:31;;;;;;;6.38;2.25;;;10.00;99.90;;;;;;5051819;28;20059;-76
2021/12/12 04:29:16;;;;;;;11.05;2.60;;;10.00;99.90;;;;;;5051675;28;20033;-75
2021/12/12 04:31:51;;;;;;;15.82;2.83;;;10.00;99.90;;;;;;5051997;28;20501;-76
2021/12/12 04:34:25;;;;;;;10.38;2.63;;;9.90;99.90;;;;;;5065878;28;20660;-77
2021/12/12 04:36:52;;;;;;;6.82;2.15;;;9.90;99.90;;;;;;5051725;28;20033;-76
2021/12/12 04:39:19;;;;;;;8.38;2.47;;;9.90;99.90;;;;;;5051418;28;20025;-76
2021/12/12 04:41:47;;;;;;;4.18;1.90;;;9.90;99.90;;;;;;5052073;28;20064;-77
2021/12/12 04:44:13;;;;;;;9.50;2.25;;;9.90;99.90;;;;;;5051324;28;20036;-75
2021/12/12 04:49:55;;;;;;;10.45;2.83;;;9.90;99.90;;;;;;5054693;28;20086;-76
2021/12/12 04:52:31;;;;;;;11.10;2.53;;;9.90;99.90;;;;;;5055351;28;20456;-76
2021/12/12 04:55:08;;;;;;;9.98;2.50;;;9.80;99.90;;;;;;5055697;28;20075;-76
2021/12/12 04:57:44;;;;;;;8.98;2.75;;;9.80;99.90;;;;;;5056231;28;20021;-76
2021/12/12 05:00:15;;;;;;;5.95;1.92;;;9.80;99.90;;;;;;5055298;28;20039;-76
2021/12/12 05:03:08;;;;;;;8.77;2.03;;;9.80;99.90;;;;;;5055038;28;20029;-76
2021/12/12 05:05:53;;;;;;;14.35;2.22;;;9.80;99.90;;;;;;5055861;28;20049;-76
2021/12/12 05:08:28;;;;;;;8.48;2.03;;;9.80;99.90;;;;;;5055164;28;20024;-76
2021/12/12 05:11:00;;;;;;;9.02;2.50;;;9.80;99.90;;;;;;5055400;28;20501;-76
2021/12/12 05:13:40;;;;;;;7.82;2.35;;;9.80;99.90;;;;;;5054278;28;20483;-75
2021/12/12 05:16:29;;;;;;;10.40;2.50;;;9.80;99.90;;;;;;5055047;28;20037;-76
2021/12/12 05:19:06;;;;;;;5.28;1.90;;;9.80;99.90;;;;;;5055459;28;20480;-76
2021/12/12 05:21:38;;;;;;;8.48;2.28;;;9.70;99.90;;;;;;5054406;28;20037;-76
2021/12/12 05:24:08;;;;;;;12.23;2.53;;;9.70;99.90;;;;;;5054532;28;20495;-76
2021/12/12 05:26:43;;;;;;;11.00;3.22;;;9.70;99.90;;;;;;5055296;28;20074;-77
2021/12/12 05:29:25;;;;;;;13.82;2.40;;;9.60;99.90;;;;;;5054640;28;20036;-78
2021/12/12 05:31:53;;;;;;;18.85;2.60;;;9.60;99.90;;;;;;5055057;28;20030;-76
2021/12/12 05:34:23;;;;;;;13.48;2.60;;;9.60;99.90;;;;;;5054666;28;20472;-77
2021/12/12 05:36:52;;;;;;;10.50;2.78;;;9.60;99.90;;;;;;5055164;28;20032;-76
2021/12/12 05:39:19;;;;;;;7.18;2.20;;;9.60;99.90;;;;;;5054532;28;20461;-76
2021/12/12 05:41:47;;;;;;;12.07;2.42;;;9.60;99.90;;;;;;5054994;28;20025;-76
2021/12/12 05:44:14;;;;;;;12.40;3.08;;;9.70;99.90;;;;;;5054471;28;20021;-76
2021/12/12 05:46:40;;;;;;;9.65;2.65;;;9.70;99.90;;;;;;5055164;28;20029;-76
2021/12/12 05:49:06;;;;;;;14.43;2.55;;;9.70;99.90;;;;;;5054340;28;20079;-77
2021/12/12 05:51:33;;;;;;;10.85;2.67;;;9.70;99.90;;;;;;5054883;28;20021;-77
2021/12/12 05:54:00;;;;;;;8.82;2.30;;;9.70;99.90;;;;;;5053611;28;20083;-75
2021/12/12 05:56:29;;;;;;;6.10;2.10;;;9.70;99.90;;;;;;5054327;28;20025;-75
2021/12/12 05:58:56;;;;;;;10.57;2.35;;;9.70;99.90;;;;;;5054484;28;20021;-75
2021/12/12 06:01:23;;;;;;;9.52;2.17;;;9.70;99.90;;;;;;5053118;28;20658;-75
2021/12/12 06:03:50;;;;;;;9.48;2.13;;;9.80;99.90;;;;;;5059759;28;20029;-75
2021/12/12 06:06:20;;;;;;;6.90;2.00;;;9.80;99.90;;;;;;5060156;28;20060;-75
2021/12/12 06:08:48;;;;;;;6.38;2.03;;;9.80;99.90;;;;;;5056038;28;20485;-75
2021/12/12 06:11:16;;;;;;;9.25;2.47;;;9.80;99.90;;;;;;5053750;28;20387;-75
2021/12/12 06:13:43;;;;;;;9.45;2.28;;;9.80;99.90;;;;;;5054389;28;20021;-76
2021/12/12 06:16:18;;;;;;;11.18;2.13;;;9.80;99.90;;;;;;5053494;28;20021;-77
2021/12/12 06:18:51;;;;;;;5.10;2.20;;;9.90;99.90;;;;;;5054237;28;20036;-75
2021/12/12 06:21:17;;;;;;;7.43;2.15;;;9.90;99.90;;;;;;5053439;28;20033;-75
2021/12/12 06:23:45;;;;;;;6.90;1.92;;;9.90;99.90;;;;;;5054214;28;20025;-74
2021/12/12 06:26:11;;;;;;;9.85;2.53;;;9.90;99.90;;;;;;5053705;28;20029;-75
2021/12/12 06:28:39;;;;;;;7.95;2.92;;;9.90;99.90;;;;;;5054281;28;20021;-74
2021/12/12 06:31:06;;;;;;;7.13;2.28;;;9.90;99.90;;;;;;5053915;28;20033;-74
2021/12/12 06:33:32;;;;;;;10.60;2.92;;;9.90;99.90;;;;;;5053900;28;20028;-75
2021/12/12 06:35:59;;;;;;;13.27;2.72;;;9.90;99.90;;;;;;5054319;28;20100;-74
2021/12/12 06:38:25;;;;;;;10.40;2.80;;;9.90;99.90;;;;;;5053481;28;20029;-75
2021/12/12 06:40:52;;;;;;;5.55;2.72;;;9.90;99.90;;;;;;5053874;28;20510;-74
2021/12/12 06:43:20;;;;;;;6.97;2.30;;;9.90;99.90;;;;;;5053271;28;20094;-75
2021/12/12 06:45:47;;;;;;;8.75;3.10;;;9.80;99.90;;;;;;5053947;28;20029;-76
2021/12/12 06:48:14;;;;;;;8.95;2.50;;;9.80;99.90;;;;;;5053205;28;20025;-76
2021/12/12 06:50:44;;;;;;;8.68;2.80;;;9.80;99.90;;;;;;5053880;28;20072;-75
2021/12/12 06:53:13;;;;;;;8.57;3.05;;;9.80;99.90;;;;;;5053039;28;20119;-76
2021/12/12 06:55:44;;;;;;;8.55;3.22;;;9.80;99.90;;;;;;5052399;28;20025;-75
2021/12/12 06:58:11;;;;;;;10.13;2.70;;;9.80;99.90;;;;;;5053229;28;20033;-76
2021/12/12 07:00:37;;;;;;;7.50;2.60;;;9.80;99.90;;;;;;5053153;28;20094;-76
2021/12/12 07:03:03;;;;;;;11.55;3.20;;;9.80;99.90;;;;;;5053616;28;20025;-76
2021/12/12 07:05:30;;;;;;;9.48;3.10;;;9.80;99.90;;;;;;5051265;28;20040;-76
2021/12/12 07:07:57;;;;;;;8.82;3.00;;;9.80;99.90;;;;;;5053376;28;20099;-76
2021/12/12 07:10:27;;;;;;;9.52;2.83;;;9.80;99.90;;;;;;5068291;28;20036;-76
2021/12/12 07:12:56;;;;;;;5.78;2.30;;;9.80;99.90;;;;;;5052551;28;20036;-76
2021/12/12 07:15:32;;;;;;;5.65;2.35;;;9.80;99.90;;;;;;5067614;28;20021;-76
2021/12/12 07:18:04;;;;;;;7.47;2.78;;;9.80;99.90;;;;;;5053089;28;20029;-75
2021/12/12 07:20:31;;;;;;;7.15;2.33;;;9.80;99.90;;;;;;5051174;28;20033;-75
2021/12/12 07:22:57;;;;;;;8.30;2.78;;;9.80;99.90;;;;;;5052812;28;20435;-75
2021/12/12 07:25:23;;;;;;;6.03;2.40;;;9.80;99.90;;;;;;5051134;28;20025;-75
2021/12/12 07:27:52;;;;;;;9.63;3.55;;;9.80;99.90;;;;;;5053143;28;20032;-75
2021/12/12 07:30:19;;;;;;;10.02;3.25;;;9.80;99.90;;;;;;5051145;28;20361;-76
2021/12/12 07:32:45;;;;;;;10.57;2.95;;;9.80;99.90;;;;;;5053029;28;20028;-76
2021/12/12 07:35:13;;;;;;;10.48;3.30;;;9.80;99.90;;;;;;5052629;28;20021;-76
2021/12/12 07:37:41;;;;;;;10.50;3.55;;;9.80;99.90;;;;;;5051507;28;20459;-75
2021/12/12 07:40:08;;;;;;;8.60;3.40;;;9.80;99.90;;;;;;5052792;28;20033;-75
2021/12/12 07:42:35;;;;;;;7.78;3.00;;;9.80;99.90;;;;;;5067501;28;20039;-75
2021/12/12 07:45:01;;;;;;;13.68;3.63;;;9.80;99.90;;;;;;5052955;28;20029;-76
2021/12/12 07:47:29;;;;;;;6.28;3.25;;;9.80;99.90;;;;;;5051977;28;20032;-76
2021/12/12 07:49:55;;;;;;;5.95;2.92;;;9.80;99.90;;;;;;5052677;28;20037;-76
2021/12/12 07:52:24;;;;;;;7.20;3.38;;;9.80;99.90;;;;;;5051900;28;20121;-74
2021/12/12 07:54:51;;;;;;;6.70;2.95;;;9.80;99.90;;;;;;5052393;28;20029;-75
2021/12/12 07:57:18;;;;;;;7.60;3.10;;;9.80;99.90;;;;;;5051896;28;20021;-77
2021/12/12 07:59:45;;;;;;;6.18;2.95;;;9.80;99.90;;;;;;5052561;28;20115;-74
2021/12/12 08:02:13;;;;;;;6.40;2.40;;;9.80;99.90;;;;;;5052360;28;20037;-75
2021/12/12 08:04:40;;;;;;;6.25;2.60;;;9.80;99.90;;;;;;5052321;28;20049;-75
2021/12/12 08:07:22;;;;;;;5.63;2.38;;;9.90;99.90;;;;;;5052149;28;20025;-75
2021/12/12 08:09:50;;;;;;;7.68;2.40;;;9.90;99.90;;;;;;5052572;28;20029;-74
2021/12/12 08:12:19;;;;;;;3.55;2.55;;;9.90;99.90;;;;;;5050376;28;20029;-75
2021/12/12 08:14:47;;;;;;;3.80;1.85;;;9.90;99.90;;;;;;5052616;28;20116;-75
2021/12/12 08:17:14;;;;;;;4.90;1.95;;;9.90;99.90;;;;;;5052082;28;20163;-75
2021/12/12 08:19:40;;;;;;;3.30;2.13;;;9.90;99.90;;;;;;5052050;28;20060;-76
2021/12/12 08:22:08;;;;;;;5.13;1.80;;;10.00;99.90;;;;;;5052321;28;20071;-76
2021/12/12 08:24:37;;;;;;;3.10;1.90;;;10.00;99.90;;;;;;5049952;28;20021;-76
2021/12/12 08:27:05;;;;;;;4.80;2.97;;;10.10;99.90;;;;;;5052421;28;20029;-76
2021/12/12 08:29:32;;;;;;;3.13;1.63;;;10.10;99.90;;;;;;5051387;28;20492;-76
2021/12/12 08:31:58;;;;;;;3.60;1.77;;;10.10;99.90;;;;;;5051948;28;20026;-75
2021/12/12 08:34:26;;;;;;;3.25;1.50;;;10.10;99.90;;;;;;5051407;28;20106;-75
2021/12/12 08:36:54;;;;;;;4.75;1.95;;;10.10;99.90;;;;;;5052117;28;20055;-76
2021/12/12 08:39:21;;;;;;;5.50;1.75;;;10.20;99.90;;;;;;5051649;28;20048;-75
2021/12/12 08:41:50;;;;;;;3.08;1.40;;;10.20;99.90;;;;;;5055380;28;20491;-76
2021/12/12 08:44:18;;;;;;;3.97;1.58;;;10.20;99.90;;;;;;5053209;28;20029;-76
2021/12/12 08:46:48;;;;;;;2.65;1.38;;;10.20;99.90;;;;;;5052009;28;20075;-75
2021/12/12 08:49:16;;;;;;;2.45;1.52;;;10.20;99.90;;;;;;5051986;28;20025;-75
2021/12/12 08:52:04;;;;;;;2.17;1.40;;;10.20;99.90;;;;;;5051844;28;20025;-75
2021/12/12 08:54:33;;;;;;;3.00;1.23;;;10.20;99.90;;;;;;5050266;28;20423;-75
2021/12/12 08:57:10;;;;;;;1.67;1.40;;;10.20;99.90;;;;;;5050644;28;20468;-74
2021/12/12 08:59:43;;;;;;;2.65;1.55;;;10.30;99.90;;;;;;5051317;28;20061;-75
2021/12/12 09:02:11;;;;;;;;;;;10.30;99.90;;;;;;5066982;28;20036;-75
2021/12/12 09:04:48;;;;;;;2.10;1.40;;;10.30;99.90;;;;;;5051190;28;19913;-75
2021/12/12 09:07:19;;;;;;;2.08;1.60;;;10.30;99.90;;;;;;5051936;28;20083;-74
2021/12/12 09:10:03;;;;;;;2.88;1.50;;;10.40;99.90;;;;;;5051808;28;20073;-74
2021/12/12 09:12:38;;;;;;;1.88;1.65;;;10.40;99.90;;;;;;5051057;28;20021;-75
2021/12/12 09:15:16;;;;;;;3.03;1.58;;;10.40;99.90;;;;;;5051403;28;20479;-74
2021/12/12 09:17:51;;;;;;;2.92;1.35;;;10.50;99.90;;;;;;5051407;28;20067;-75
2021/12/12 09:20:47;;;;;;;2.08;1.45;;;10.50;99.90;;;;;;5051289;28;20442;-74
2021/12/12 09:23:27;;;;;;;6.43;1.70;;;10.50;99.90;;;;;;5051592;28;20021;-74
2021/12/12 09:26:12;;;;;;;1.70;1.60;;;10.60;99.90;;;;;;5051103;28;20112;-74
2021/12/12 09:28:49;;;;;;;3.05;1.83;;;10.60;99.90;;;;;;5051207;28;20057;-74
2021/12/12 09:31:24;;;;;;;2.22;1.60;;;10.60;99.90;;;;;;5050321;28;20041;-74
2021/12/12 09:33:58;;;;;;;2.83;1.63;;;10.60;99.90;;;;;;5051515;28;20066;-75
2021/12/12 09:36:51;;;;;;;2.63;1.67;;;10.60;99.90;;;;;;5053148;28;20063;-75
2021/12/12 09:39:25;;;;;;;3.65;1.58;;;10.70;99.90;;;;;;5055277;28;20029;-75
2021/12/12 09:42:02;;;;;;;2.08;1.50;;;10.70;99.90;;;;;;5055351;28;20078;-75
2021/12/12 09:44:49;;;;;;;2.67;1.52;;;10.80;99.90;;;;;;5053042;28;20395;-75
2021/12/12 09:47:59;;;;;;;2.78;1.50;;;10.80;99.90;;;;;;5054920;28;20025;-75
2021/12/12 09:51:16;;;;;;;3.38;1.70;;;10.80;99.90;;;;;;5054478;28;20025;-75
2021/12/12 09:53:42;;;;;;;2.25;1.75;;;10.90;99.90;;;;;;5052532;28;20033;-75
2021/12/12 09:56:39;;;;;;;4.38;1.40;;;10.90;99.90;;;;;;5054813;28;20032;-75
2021/12/12 09:59:28;;;;;;;4.65;1.58;;;11.20;99.90;;;;;;5054734;28;20071;-75
2021/12/12 10:02:04;;;;;;;3.47;1.02;;;11.30;99.90;;;;;;5054535;28;20064;-75
2021/12/12 10:04:59;;;;;;;2.80;0.85;;;11.50;99.90;;;;;;5051839;28;20047;-75
2021/12/12 10:07:52;;;;;;;3.33;0.93;;;11.70;99.90;;;;;;5052301;28;20483;-75
2021/12/12 10:10:24;;;;;;;;;;;11.80;99.90;;;;;;5054587;28;20480;-75
2021/12/12 10:13:00;;;;;;;4.35;0.90;;;12.00;99.90;;;;;;5054397;28;20054;-75
2021/12/12 10:15:28;;;;;;;3.75;0.85;;;12.10;99.90;;;;;;5053622;28;20048;-75
2021/12/12 10:18:06;;;;;;;1.23;0.65;;;12.10;99.90;;;;;;5054150;28;20029;-75
2021/12/12 10:20:41;;;;;;;1.63;0.75;;;12.20;99.90;;;;;;5053402;28;20516;-75
2021/12/12 10:23:16;;;;;;;2.05;0.65;;;12.30;99.90;;;;;;5054396;28;20017;-75
2021/12/12 10:25:56;;;;;;;2.22;0.57;;;12.40;99.90;;;;;;5053801;28;20021;-75
2021/12/12 10:28:37;;;;;;;3.13;0.65;;;12.40;99.90;;;;;;5058146;28;20360;-75
2021/12/12 10:31:23;;;;;;;2.25;1.02;;;12.40;99.90;;;;;;5054451;28;20170;-75
2021/12/12 10:33:59;;;;;;;3.33;0.57;;;12.50;99.90;;;;;;5053517;28;20372;-75
2021/12/12 10:36:35;;;;;;;3.15;0.85;;;12.50;99.90;;;;;;5053596;28;20025;-75
2021/12/12 10:39:16;;;;;;;2.67;0.52;;;12.50;99.90;;;;;;5053728;28;20506;-74
2021/12/12 10:41:52;;;;;;;2.10;0.63;;;12.60;99.90;;;;;;5053387;28;20123;-75
2021/12/12 10:44:26;;;;;;;2.83;0.70;;;12.60;99.90;;;;;;5053951;28;20069;-75
2021/12/12 10:46:52;;;;;;;2.83;0.70;;;12.60;99.90;;;;;;5053685;28;20028;-75
2021/12/12 10:49:36;;;;;;;4.40;0.90;;;12.60;99.90;;;;;;5053355;28;20384;-75
2021/12/12 10:52:07;;;;;;;2.67;0.73;;;12.60;99.90;;;;;;5053310;28;20393;-74
2021/12/12 10:55:05;;;;;;;2.03;0.50;;;12.60;99.90;;;;;;5053051;28;20067;-75
2021/12/12 10:57:37;;;;;;;3.38;0.43;;;12.60;99.90;;;;;;5053067;28;20028;-75
2021/12/12 11:00:16;;;;;;;0.73;0.43;;;12.70;99.90;;;;;;5053275;28;20403;-73
2021/12/12 11:03:16;;;;;;;2.17;0.50;;;12.80;99.90;;;;;;5052946;28;20029;-74
2021/12/12 11:05:54;;;;;;;2.08;0.50;;;12.80;99.90;;;;;;5052017;28;20045;-74
2021/12/12 11:08:41;;;;;;;1.33;0.47;;;12.90;99.90;;;;;;5053490;28;20116;-74
2021/12/12 11:11:15;;;;;;;1.52;0.50;;;13.00;99.90;;;;;;5053454;28;20071;-74
2021/12/12 11:13:52;;;;;;;2.50;0.40;;;13.10;99.90;;;;;;5051581;28;20463;-74
2021/12/12 11:16:29;;;;;;;1.30;0.30;;;13.10;99.90;;;;;;5053663;28;20419;-74
2021/12/12 11:19:02;;;;;;;1.23;0.30;;;13.20;99.90;;;;;;5053556;28;20104;-75
2021/12/12 11:21:34;;;;;;;0.68;0.40;;;13.20;99.90;;;;;;5052772;28;20036;-75
2021/12/12 11:24:28;;;;;;;0.63;0.30;;;13.30;99.90;;;;;;5053117;28;20025;-74
2021/12/12 11:27:02;;;;;;;0.93;0.50;;;13.30;99.90;;;;;;5051545;28;20040;-74
2021/12/12 11:29:33;;;;;;;2.25;0.50;;;13.30;99.90;;;;;;5052417;28;20108;-75
2021/12/12 11:32:10;;;;;;;0.52;0.38;;;13.40;99.90;;;;;;5051425;28;20025;-74
2021/12/12 11:34:40;;;;;;;4.13;0.50;;;13.40;99.90;;;;;;5051844;28;20547;-74
2021/12/12 11:37:29;;;;;;;1.30;0.35;;;13.40;99.90;;;;;;5052757;28;20409;-73
2021/12/12 11:40:06;;;;;;;1.23;0.60;;;13.30;99.90;;;;;;5052582;28;20033;-74
2021/12/12 11:42:44;;;;;;;0.95;0.30;;;13.30;99.90;;;;;;5051826;28;20025;-75
2021/12/12 11:45:38;;;;;;;3.42;0.57;;;13.30;99.90;;;;;;5052827;28;20070;-74
2021/12/12 11:48:15;;;;;;;0.50;0.28;;;13.30;99.90;;;;;;5050559;28;20423;-73
2021/12/12 11:50:54;;;;;;;2.63;0.52;;;13.30;99.90;;;;;;5051945;28;20464;-74
2021/12/12 11:53:43;;;;;;;1.05;0.30;;;13.20;99.90;;;;;;5052695;28;20107;-74
2021/12/12 11:56:20;;;;;;;0.32;0.32;;;13.20;99.90;;;;;;5052235;28;20103;-73
2021/12/12 11:59:04;;;;;;;2.90;0.35;;;13.30;99.90;;;;;;5051016;28;20055;-74
2021/12/12 12:01:39;;;;;;;0.90;0.30;;;13.30;99.90;;;;;;5051374;28;20044;-74
2021/12/12 12:04:40;;;;;;;1.48;0.50;;;13.30;99.90;;;;;;5051548;28;20104;-74
2021/12/12 12:07:42;;;;;;;1.45;0.40;;;13.40;99.90;;;;;;5052067;28;20025;-74
2021/12/12 12:10:14;;;;;;;0.60;0.30;;;13.40;99.90;;;;;;5066555;28;20063;-74
2021/12/12 12:12:51;;;;;;;0.40;0.10;;;13.50;99.90;;;;;;5050867;28;20029;-74
2021/12/12 12:15:29;;;;;;;1.02;0.82;;;13.50;99.90;;;;;;5051586;28;20562;-74
2021/12/12 12:18:12;;;;;;;0.30;0.25;;;13.60;99.90;;;;;;5051094;28;20036;-74
2021/12/12 12:20:43;;;;;;;0.88;0.45;;;13.50;99.90;;;;;;5050638;28;20041;-74
2021/12/12 12:23:30;;;;;;;1.35;0.70;;;13.50;99.90;;;;;;5051424;28;20029;-74
2021/12/12 12:28:56;;;;;;;0.57;0.30;;;13.60;99.90;;;;;;5050720;28;20117;-74
2021/12/12 12:31:39;;;;;;;1.30;0.40;;;13.60;99.90;;;;;;5051496;28;20039;-74
2021/12/12 12:34:42;;;;;;;0.20;0.20;;;13.50;99.90;;;;;;5050429;28;20467;-74
2021/12/12 12:37:45;;;;;;;0.45;0.40;;;13.50;99.90;;;;;;5051607;28;20055;-74
2021/12/12 12:40:48;;;;;;;0.88;0.40;;;13.50;99.90;;;;;;5051719;28;20033;-74
2021/12/12 12:43:51;;;;;;;0.52;0.40;;;13.50;99.90;;;;;;5051565;28;20519;-74
2021/12/12 12:46:35;;;;;;;1.08;0.20;;;13.50;99.90;;;;;;5049660;28;20025;-74
2021/12/12 12:49:38;;;;;;;0.30;0.30;;;13.50;99.90;;;;;;5051311;28;20025;-73
2021/12/12 12:52:17;;;;;;;0.20;0.20;;;13.60;99.90;;;;;;5051596;28;20033;-74
2021/12/12 12:55:20;;;;;;;0.20;0.20;;;13.60;99.90;;;;;;5050917;28;20025;-73
2021/12/12 12:57:46;;;;;;;0.20;0.10;;;13.60;99.90;;;;;;5050856;28;20104;-74
2021/12/12 13:00:22;;;;;;;1.15;0.30;;;13.60;99.90;;;;;;5051290;28;20041;-73
2021/12/12 13:03:16;;;;;;;0.63;0.10;;;13.60;99.90;;;;;;5050853;28;20033;-74
2021/12/12 13:06:00;;;;;;;0.32;0.20;;;13.60;99.90;;;;;;5050643;28;20234;-74
2021/12/12 13:08:51;;;;;;;0.10;0.10;;;13.60;99.90;;;;;;5051437;28;20079;-74
2021/12/12 13:11:18;;;;;;;0.30;0.30;;;13.60;99.90;;;;;;5053327;28;20471;-74
2021/12/12 13:14:17;;;;;;;0.73;0.30;;;13.60;99.90;;;;;;5054414;28;20021;-74
2021/12/12 13:16:49;;;;;;;0.60;0.40;;;13.60;99.90;;;;;;5054523;28;20104;-74
2021/12/12 13:19:38;;;;;;;1.63;1.20;;;13.60;99.90;;;;;;5055112;28;20028;-74
2021/12/12 13:22:04;;;;;;;0.73;0.50;;;13.60;99.90;;;;;;5055180;28;20044;-74
2021/12/12 13:24:40;;;;;;;0.50;0.30;;;13.60;99.90;;;;;;5053883;28;20349;-74
2021/12/12 13:30:30;;;;;;;0.52;0.22;;;13.50;99.90;;;;;;5052411;28;20047;-74
2021/12/12 13:33:07;;;;;;;0.68;0.40;;;13.60;99.90;;;;;;5053468;28;20672;-74
2021/12/12 13:36:05;;;;;;;0.38;0.30;;;13.60;99.90;;;;;;5054631;28;20036;-75
2021/12/12 13:38:58;;;;;;;1.02;0.63;;;13.60;99.90;;;;;;5054661;28;20044;-74
2021/12/12 13:41:48;;;;;;;2.42;0.40;;;13.70;99.90;;;;;;5054528;28;20037;-74
2021/12/12 13:44:32;;;;;;;0.40;0.40;;;13.70;99.90;;;;;;5054565;28;20069;-74
2021/12/12 13:47:24;;;;;;;0.95;0.40;;;13.70;99.90;;;;;;5054135;28;20021;-74